createdAt,value
2023-05-08T00:01:44.460Z,16.15
2023-05-08T00:04:15.135Z,16.10
2023-05-08T00:06:44.871Z,16.52
2023-05-08T00:09:14.783Z,17.63
2023-05-08T00:11:44.486Z,16.50
2023-05-08T00:14:14.133Z,18.92
2023-05-08T00:16:43.844Z,16.88
2023-05-08T00:19:13.467Z,16.50
2023-05-08T00:21:43.296Z,17.15
2023-05-08T00:24:12.870Z,16.27
2023-05-08T00:26:43.601Z,17.63
2023-05-08T00:29:13.290Z,16.48
2023-05-08T00:31:42.998Z,16.58
2023-05-08T00:34:12.780Z,14.43
2023-05-08T00:36:42.351Z,15.20
2023-05-08T00:39:12.035Z,15.02
2023-05-08T00:41:41.627Z,16.13
2023-05-08T00:44:11.186Z,16.23
2023-05-08T00:46:41.503Z,15.10
2023-05-08T00:49:14.756Z,14.80
2023-05-08T00:51:47.242Z,14.45
2023-05-08T00:54:18.199Z,14.80
2023-05-08T00:56:48.588Z,15.05
2023-05-08T00:59:19.949Z,14.75
2023-05-08T01:01:50.716Z,15.40
2023-05-08T01:04:23.432Z,15.30
2023-05-08T01:06:53.028Z,14.52
2023-05-08T01:09:22.651Z,16.35
2023-05-08T01:12:18.596Z,16.60
2023-05-08T01:15:18.561Z,17.75
2023-05-08T01:18:27.549Z,16.65
2023-05-08T01:21:31.079Z,15.88
2023-05-08T01:24:27.213Z,13.15
2023-05-08T01:27:35.878Z,12.85
2023-05-08T01:30:44.887Z,12.77
2023-05-08T01:33:48.414Z,11.93
2023-05-08T01:36:25.647Z,10.93
2023-05-08T01:39:12.639Z,11.90
2023-05-08T01:41:46.414Z,12.02
2023-05-08T01:44:21.609Z,11.40
2023-05-08T01:46:53.323Z,10.93
2023-05-08T01:49:45.360Z,11.38
2023-05-08T01:52:25.334Z,11.77
2023-05-08T01:55:07.466Z,10.77
2023-05-08T01:57:40.359Z,10.95
2023-05-08T02:00:11.864Z,13.15
2023-05-08T02:02:42.093Z,13.10
2023-05-08T02:05:12.680Z,11.45
2023-05-08T02:07:45.049Z,11.63
2023-05-08T02:10:15.784Z,11.82
2023-05-08T02:12:46.623Z,11.27
2023-05-08T02:15:17.418Z,10.73
2023-05-08T02:17:50.628Z,9.80
2023-05-08T02:20:22.235Z,11.63
2023-05-08T02:22:53.812Z,10.07
2023-05-08T02:25:24.593Z,9.88
2023-05-08T02:27:55.703Z,8.90
2023-05-08T02:30:28.489Z,9.50
2023-05-08T02:33:00.974Z,9.15
2023-05-08T02:35:33.143Z,8.15
2023-05-08T02:38:04.140Z,7.30
2023-05-08T02:40:34.880Z,7.97
2023-05-08T02:43:04.416Z,8.10
2023-05-08T02:45:47.718Z,8.65
2023-05-08T02:48:40.257Z,7.28
2023-05-08T02:51:32.999Z,7.90
2023-05-08T02:54:18.259Z,7.03
2023-05-08T02:57:02.010Z,7.53
2023-05-08T02:59:48.107Z,7.03
2023-05-08T03:02:42.379Z,7.00
2023-05-08T03:05:22.467Z,6.68
2023-05-08T03:07:56.425Z,5.72
2023-05-08T03:10:31.461Z,5.78
2023-05-08T03:13:03.865Z,5.60
2023-05-08T03:15:43.151Z,5.72
2023-05-08T03:18:21.631Z,5.93
2023-05-08T03:20:56.403Z,5.18
2023-05-08T03:23:28.458Z,5.18
2023-05-08T03:26:01.150Z,5.05
2023-05-08T03:28:33.219Z,4.55
2023-05-08T03:31:04.414Z,5.45
2023-05-08T03:33:35.917Z,4.75
2023-05-08T03:36:05.732Z,4.85
2023-05-08T03:38:36.165Z,4.35
2023-05-08T03:41:06.284Z,5.00
2023-05-08T03:43:38.386Z,5.00
2023-05-08T03:46:09.069Z,4.72
2023-05-08T03:48:38.818Z,5.25
2023-05-08T03:51:08.427Z,4.95
2023-05-08T03:53:38.144Z,4.40
2023-05-08T03:56:07.926Z,4.75
2023-05-08T03:58:51.535Z,5.25
2023-05-08T04:01:42.398Z,4.95
2023-05-08T04:04:29.955Z,4.20
2023-05-08T04:07:16.297Z,5.18
2023-05-08T04:10:09.468Z,5.28
2023-05-08T04:12:47.193Z,5.10
2023-05-08T04:18:12.087Z,4.63
2023-05-08T04:20:46.490Z,5.10
2023-05-08T04:23:20.578Z,4.80
2023-05-08T04:25:53.195Z,4.55
2023-05-08T04:28:23.801Z,5.18
2023-05-08T04:30:54.522Z,4.35
2023-05-08T04:33:24.159Z,5.55
2023-05-08T04:35:53.737Z,4.60
2023-05-08T04:38:23.232Z,5.20
2023-05-08T04:40:52.998Z,4.78
2023-05-08T04:43:22.759Z,4.65
2023-05-08T04:45:52.481Z,5.10
2023-05-08T04:48:22.221Z,4.22
2023-05-08T04:50:51.807Z,5.00
2023-05-08T04:53:21.315Z,4.47
2023-05-08T04:55:50.847Z,4.82
2023-05-08T04:58:20.364Z,4.20
2023-05-08T05:00:49.911Z,4.53
2023-05-08T05:03:19.501Z,6.22
2023-05-08T05:05:49.264Z,5.53
2023-05-08T05:08:18.731Z,6.55
2023-05-08T05:10:48.303Z,5.55
2023-05-08T05:13:17.936Z,5.55
2023-05-08T05:15:47.797Z,6.50
2023-05-08T05:18:17.698Z,6.60
2023-05-08T05:20:47.721Z,7.13
2023-05-08T05:23:17.247Z,6.60
2023-05-08T05:25:46.779Z,6.82
2023-05-08T05:28:16.280Z,5.65
2023-05-08T05:30:48.609Z,6.35
2023-05-08T05:33:18.288Z,6.78
2023-05-08T05:35:47.941Z,7.18
2023-05-08T05:38:17.574Z,7.30
2023-05-08T05:40:47.335Z,6.55
2023-05-08T05:43:16.871Z,6.95
2023-05-08T05:45:46.495Z,6.72
2023-05-08T05:48:16.072Z,6.13
2023-05-08T05:50:45.955Z,6.40
2023-05-08T05:53:15.528Z,6.85
2023-05-08T05:55:45.134Z,6.68
2023-05-08T05:58:14.640Z,7.72
2023-05-08T06:00:44.734Z,6.68
2023-05-08T06:03:14.353Z,6.97
2023-05-08T06:05:44.195Z,6.38
2023-05-08T06:08:14.098Z,7.07
2023-05-08T06:10:43.620Z,6.93
2023-05-08T06:13:13.305Z,7.57
2023-05-08T06:15:43.174Z,7.55
2023-05-08T06:18:12.786Z,6.60
2023-05-08T06:20:42.534Z,7.13
2023-05-08T06:23:12.106Z,8.45
2023-05-08T06:25:41.972Z,7.40
2023-05-08T06:28:11.503Z,6.18
2023-05-08T06:30:41.111Z,7.70
2023-05-08T06:33:12.907Z,6.80
2023-05-08T06:35:42.452Z,7.45
2023-05-08T06:38:12.061Z,7.53
2023-05-08T06:40:47.709Z,6.95
2023-05-08T06:43:17.377Z,6.95
2023-05-08T06:45:47.416Z,7.18
2023-05-08T06:48:17.082Z,7.18
2023-05-08T06:50:46.881Z,8.02
2023-05-08T06:53:16.643Z,7.40
2023-05-08T06:55:46.973Z,7.65
2023-05-08T06:58:16.872Z,6.70
2023-05-08T07:00:46.488Z,8.05
2023-05-08T07:03:16.157Z,7.63
2023-05-08T07:05:45.743Z,7.57
2023-05-08T07:08:15.325Z,7.65
2023-05-08T07:10:45.009Z,6.60
2023-05-08T07:13:14.717Z,8.18
2023-05-08T07:15:44.324Z,7.93
2023-05-08T07:18:13.896Z,7.80
2023-05-08T07:20:43.411Z,7.75
2023-05-08T07:23:13.216Z,7.75
2023-05-08T07:25:42.768Z,7.55
2023-05-08T07:28:12.482Z,7.80
2023-05-08T07:30:42.366Z,7.28
2023-05-08T07:33:12.001Z,7.25
2023-05-08T07:35:42.625Z,8.18
2023-05-08T07:38:12.276Z,8.27
2023-05-08T07:40:42.120Z,8.35
2023-05-08T07:43:11.768Z,7.50
2023-05-08T07:45:41.245Z,8.60
2023-05-08T07:48:10.791Z,7.70
2023-05-08T07:50:40.506Z,7.85
2023-05-08T07:53:09.996Z,6.97
2023-05-08T07:55:39.492Z,7.00
2023-05-08T07:58:09.069Z,7.22
2023-05-08T08:00:39.456Z,6.40
2023-05-08T08:03:09.452Z,7.32
2023-05-08T08:05:39.009Z,7.20
2023-05-08T08:08:08.484Z,7.35
2023-05-08T08:10:38.113Z,7.00
2023-05-08T08:13:08.422Z,7.22
2023-05-08T08:15:38.080Z,7.68
2023-05-08T08:18:07.829Z,7.63
2023-05-08T08:20:37.401Z,7.68
2023-05-08T08:23:09.414Z,7.22
2023-05-08T08:25:38.846Z,6.88
2023-05-08T08:28:08.474Z,7.82
2023-05-08T08:30:37.999Z,7.43
2023-05-08T08:33:07.967Z,7.35
2023-05-08T08:35:37.595Z,7.28
2023-05-08T08:38:07.137Z,6.70
2023-05-08T08:40:45.084Z,7.32
2023-05-08T08:43:14.852Z,7.57
2023-05-08T08:45:44.427Z,7.65
2023-05-08T08:48:14.990Z,6.88
2023-05-08T08:50:49.447Z,7.07
2023-05-08T08:53:28.793Z,6.88
2023-05-08T08:56:03.188Z,7.40
2023-05-08T08:58:48.539Z,9.07
2023-05-08T09:01:21.262Z,10.20
2023-05-08T09:03:51.747Z,9.55
2023-05-08T09:06:22.220Z,9.45
2023-05-08T09:08:54.041Z,8.73
2023-05-08T09:11:23.675Z,8.93
2023-05-08T09:13:53.565Z,9.10
2023-05-08T09:16:23.609Z,8.32
2023-05-08T09:18:53.804Z,8.95
2023-05-08T09:21:26.939Z,8.82
2023-05-08T09:24:04.314Z,8.27
2023-05-08T09:26:39.300Z,8.75
2023-05-08T09:29:21.821Z,8.15
2023-05-08T09:31:55.795Z,8.52
2023-05-08T09:34:29.553Z,7.95
2023-05-08T09:37:14.336Z,8.38
2023-05-08T09:39:45.323Z,7.93
2023-05-08T09:42:16.334Z,8.18
2023-05-08T09:44:47.752Z,7.95
2023-05-08T09:47:21.478Z,6.75
2023-05-08T09:50:12.024Z,7.30
2023-05-08T09:52:47.750Z,6.72
2023-05-08T09:55:17.924Z,7.85
2023-05-08T09:57:58.798Z,7.32
2023-05-08T10:00:32.009Z,6.65
2023-05-08T10:03:04.547Z,7.38
2023-05-08T10:05:37.339Z,6.57
2023-05-08T10:08:28.504Z,7.50
2023-05-08T10:11:16.429Z,6.85
2023-05-08T10:13:48.243Z,6.88
2023-05-08T10:16:19.894Z,7.43
2023-05-08T10:18:51.904Z,7.15
2023-05-08T10:21:22.064Z,6.70
2023-05-08T10:23:53.433Z,7.85
2023-05-08T10:26:33.659Z,7.00
2023-05-08T10:29:10.489Z,7.38
2023-05-08T10:31:45.734Z,7.13
2023-05-08T10:34:24.249Z,7.40
2023-05-08T10:36:54.820Z,7.93
2023-05-08T10:39:25.873Z,7.97
2023-05-08T10:41:56.122Z,7.57
2023-05-08T10:44:26.516Z,8.38
2023-05-08T10:47:07.514Z,8.32
2023-05-08T10:50:06.925Z,8.93
2023-05-08T10:52:44.735Z,8.18
2023-05-08T10:58:08.611Z,8.00
2023-05-08T11:01:15.816Z,8.38
2023-05-08T11:03:48.828Z,8.07
2023-05-08T11:06:19.189Z,8.73
2023-05-08T11:08:52.294Z,7.50
2023-05-08T11:11:35.068Z,7.93
2023-05-08T11:14:17.107Z,7.95
2023-05-08T11:17:07.295Z,8.45
2023-05-08T11:19:37.525Z,8.77
2023-05-08T11:22:28.747Z,8.73
2023-05-08T11:25:04.241Z,7.97
2023-05-08T11:27:39.987Z,8.88
2023-05-08T11:30:38.993Z,10.25
2023-05-08T11:33:16.267Z,10.25
2023-05-08T11:35:57.985Z,11.32
2023-05-08T11:38:43.115Z,12.57
2023-05-08T11:41:23.516Z,12.30
2023-05-08T11:44:19.531Z,11.63
2023-05-08T11:46:58.039Z,12.15
2023-05-08T11:49:29.973Z,11.32
2023-05-08T11:52:01.586Z,11.70
2023-05-08T11:54:33.251Z,11.88
2023-05-08T11:57:03.439Z,12.38
2023-05-08T11:59:38.554Z,10.55
2023-05-08T12:02:09.709Z,9.88
2023-05-08T12:04:47.396Z,10.75
2023-05-08T12:07:18.190Z,10.68
2023-05-08T12:09:49.169Z,10.10
2023-05-08T12:12:18.754Z,11.15
2023-05-08T12:14:53.150Z,10.30
2023-05-08T12:17:25.315Z,10.70
2023-05-08T12:19:58.165Z,10.23
2023-05-08T12:22:27.789Z,9.77
2023-05-08T12:24:57.628Z,9.68
2023-05-08T12:27:28.792Z,10.13
2023-05-08T12:30:00.061Z,9.90
2023-05-08T12:32:29.892Z,10.18
2023-05-08T12:34:59.762Z,10.38
2023-05-08T12:37:32.445Z,9.50
2023-05-08T12:40:02.359Z,9.40
2023-05-08T12:42:52.671Z,9.98
2023-05-08T12:45:29.625Z,10.10
2023-05-08T12:48:08.485Z,9.80
2023-05-08T12:50:39.980Z,9.73
2023-05-08T12:53:12.294Z,11.13
2023-05-08T12:55:54.324Z,9.73
2023-05-08T12:58:28.421Z,10.75
2023-05-08T13:01:13.811Z,10.63
2023-05-08T13:03:45.649Z,10.60
2023-05-08T13:06:24.741Z,10.07
2023-05-08T13:08:57.741Z,10.02
2023-05-08T13:11:36.366Z,10.38
2023-05-08T13:14:06.070Z,10.70
2023-05-08T13:16:45.925Z,10.77
2023-05-08T13:19:19.519Z,10.15
2023-05-08T13:21:49.626Z,10.73
2023-05-08T13:24:19.433Z,10.75
2023-05-08T13:26:49.087Z,10.88
2023-05-08T13:29:18.939Z,10.23
2023-05-08T13:31:48.566Z,11.77
2023-05-08T13:34:18.250Z,11.45
2023-05-08T13:36:47.953Z,14.13
2023-05-08T13:39:17.583Z,12.43
2023-05-08T13:41:47.703Z,11.80
2023-05-08T13:44:17.248Z,11.10
2023-05-08T13:46:46.798Z,10.75
2023-05-08T13:49:17.396Z,11.60
2023-05-08T13:51:51.915Z,11.23
2023-05-08T13:54:24.659Z,11.82
2023-05-08T13:56:55.656Z,16.95
2023-05-08T13:59:25.415Z,19.67
2023-05-08T14:01:55.077Z,14.90
2023-05-08T14:04:24.681Z,20.13
2023-05-08T14:06:54.252Z,25.33
2023-05-08T14:09:24.076Z,29.35
2023-05-08T14:11:53.810Z,28.23
2023-05-08T14:14:23.506Z,28.35
2023-05-08T14:16:53.300Z,30.25
2023-05-08T14:19:22.940Z,30.15
2023-05-08T14:21:53.054Z,30.98
2023-05-08T14:24:22.709Z,30.70
2023-05-08T14:26:52.340Z,33.97
2023-05-08T14:29:21.931Z,30.45
2023-05-08T14:31:51.591Z,33.42
2023-05-08T14:34:21.176Z,31.40
2023-05-08T14:36:50.709Z,27.05
2023-05-08T14:39:20.335Z,32.58
2023-05-08T14:42:08.925Z,36.60
2023-05-08T14:44:39.626Z,35.35
2023-05-08T14:47:09.246Z,31.35
2023-05-08T14:49:39.150Z,30.23
2023-05-08T14:52:09.299Z,31.92
2023-05-08T14:54:39.086Z,32.90
2023-05-08T14:57:08.902Z,33.45
2023-05-08T14:59:41.649Z,27.65
2023-05-08T15:02:19.569Z,22.48
2023-05-08T15:04:49.284Z,20.98
2023-05-08T15:07:18.888Z,21.30
2023-05-08T15:09:49.598Z,24.02
2023-05-08T15:12:19.194Z,25.80
2023-05-08T15:14:48.980Z,28.85
2023-05-08T15:17:18.634Z,28.90
2023-05-08T15:19:48.456Z,28.75
2023-05-08T15:22:19.415Z,35.22
2023-05-08T15:24:49.113Z,43.85
2023-05-08T15:27:18.847Z,43.63
2023-05-08T15:29:49.584Z,32.70
2023-05-08T15:32:19.208Z,28.40
2023-05-08T15:34:48.808Z,21.40
2023-05-08T15:37:18.491Z,19.73
2023-05-08T15:39:48.143Z,18.40
2023-05-08T15:42:17.916Z,19.95
2023-05-08T15:47:21.141Z,18.02
2023-05-08T15:49:51.600Z,17.27
2023-05-08T15:52:21.462Z,15.43
2023-05-08T15:54:52.045Z,16.98
2023-05-08T15:57:21.746Z,15.57
2023-05-08T15:59:51.361Z,14.55
2023-05-08T16:02:21.056Z,13.32
2023-05-08T16:04:50.816Z,12.73
2023-05-08T16:07:20.551Z,13.13
2023-05-08T16:09:50.520Z,12.88
2023-05-08T16:12:21.179Z,12.07
2023-05-08T16:14:50.700Z,12.65
2023-05-08T16:17:20.254Z,13.77
2023-05-08T16:19:49.869Z,13.38
2023-05-08T16:22:19.552Z,12.48
2023-05-08T16:24:49.138Z,14.68
2023-05-08T16:27:18.755Z,14.32
2023-05-08T16:29:48.365Z,13.75
2023-05-08T16:32:18.223Z,14.35
2023-05-08T16:34:47.877Z,14.77
2023-05-08T16:37:17.601Z,13.27
2023-05-08T16:39:47.272Z,13.02
2023-05-08T16:42:16.925Z,13.32
2023-05-08T16:44:47.129Z,13.80
2023-05-08T16:47:16.820Z,13.60
2023-05-08T16:49:46.855Z,12.73
2023-05-08T16:52:16.735Z,12.73
2023-05-08T16:54:46.283Z,12.32
2023-05-08T16:57:15.924Z,13.18
2023-05-08T16:59:45.544Z,13.40
2023-05-08T17:02:20.047Z,13.27
2023-05-08T17:04:50.454Z,13.77
2023-05-08T17:07:20.370Z,12.80
2023-05-08T17:09:57.472Z,13.82
2023-05-08T17:12:27.462Z,12.67
2023-05-08T17:14:57.203Z,13.10
2023-05-08T17:17:26.986Z,12.98
2023-05-08T17:19:56.650Z,12.95
2023-05-08T17:22:26.284Z,13.55
2023-05-08T17:24:56.222Z,12.77
2023-05-08T17:27:25.926Z,13.60
2023-05-08T17:29:57.670Z,13.60
2023-05-08T17:32:27.436Z,12.27
2023-05-08T17:34:56.995Z,12.50
2023-05-08T17:37:26.599Z,13.43
2023-05-08T17:39:56.104Z,12.27
2023-05-08T17:42:25.862Z,13.05
2023-05-08T17:44:55.448Z,13.77
2023-05-08T17:47:25.052Z,14.00
2023-05-08T17:49:54.794Z,13.70
2023-05-08T17:52:25.119Z,14.23
2023-05-08T17:54:54.920Z,13.65
2023-05-08T17:57:24.516Z,13.93
2023-05-08T17:59:54.180Z,13.35
2023-05-08T18:02:23.766Z,14.10
2023-05-08T18:04:53.396Z,14.20
2023-05-08T18:07:23.057Z,13.95
2023-05-08T18:09:52.731Z,14.65
2023-05-08T18:12:22.787Z,14.68
2023-05-08T18:14:52.582Z,13.95
2023-05-08T18:17:24.098Z,13.63
2023-05-08T18:19:53.749Z,14.15
2023-05-08T18:22:23.495Z,14.13
2023-05-08T18:24:54.605Z,13.07
2023-05-08T18:27:24.247Z,14.77
2023-05-08T18:29:53.990Z,13.77
2023-05-08T18:32:24.121Z,13.85
2023-05-08T18:34:53.792Z,13.73
2023-05-08T18:37:24.679Z,15.80
2023-05-08T18:39:54.334Z,14.10
2023-05-08T18:42:23.975Z,13.82
2023-05-08T18:44:53.609Z,14.63
2023-05-08T18:47:23.235Z,14.65
2023-05-08T18:49:58.533Z,14.32
2023-05-08T18:52:28.720Z,13.43
2023-05-08T18:54:58.275Z,14.20
2023-05-08T18:57:27.877Z,13.40
2023-05-08T18:59:57.402Z,14.60
2023-05-08T19:02:29.506Z,12.93
2023-05-08T19:04:59.404Z,13.55
2023-05-08T19:07:29.096Z,13.88
2023-05-08T19:09:58.630Z,13.75
2023-05-08T19:12:28.615Z,13.25
2023-05-08T19:14:58.249Z,14.05
2023-05-08T19:17:27.851Z,14.23
2023-05-08T19:19:57.503Z,13.93
2023-05-08T19:22:27.205Z,15.07
2023-05-08T19:24:56.790Z,15.32
2023-05-08T19:27:27.473Z,14.13
2023-05-08T19:29:57.740Z,14.05
2023-05-08T19:32:27.380Z,14.57
2023-05-08T19:34:58.998Z,14.77
2023-05-08T19:37:28.569Z,14.25
2023-05-08T19:39:58.468Z,16.50
2023-05-08T19:42:28.104Z,16.92
2023-05-08T19:44:57.774Z,15.70
2023-05-08T19:47:27.403Z,15.23
2023-05-08T19:49:57.123Z,15.40
2023-05-08T19:52:26.704Z,15.43
2023-05-08T19:54:56.352Z,15.70
2023-05-08T19:57:26.637Z,14.70
2023-05-08T19:59:57.623Z,15.45
2023-05-08T20:02:27.300Z,14.70
2023-05-08T20:07:29.315Z,14.40
2023-05-08T20:09:59.196Z,15.30
2023-05-08T20:12:29.147Z,14.88
2023-05-08T20:14:59.796Z,13.82
2023-05-08T20:17:29.344Z,12.98
2023-05-08T20:19:58.919Z,14.57
2023-05-08T20:22:28.535Z,14.18
2023-05-08T20:24:58.091Z,12.10
2023-05-08T20:27:27.631Z,14.38
2023-05-08T20:29:57.241Z,14.35
2023-05-08T20:32:26.946Z,13.88
2023-05-08T20:34:56.563Z,13.85
2023-05-08T20:37:26.149Z,13.60
2023-05-08T20:39:55.691Z,13.13
2023-05-08T20:42:25.340Z,14.75
2023-05-08T20:44:54.992Z,14.02
2023-05-08T20:47:24.611Z,14.82
2023-05-08T20:49:54.091Z,13.73
2023-05-08T20:52:23.554Z,13.18
2023-05-08T20:54:53.149Z,13.05
2023-05-08T20:57:23.877Z,13.65
2023-05-08T20:59:53.520Z,13.00
2023-05-08T21:02:23.278Z,12.77
2023-05-08T21:04:58.434Z,13.25
2023-05-08T21:07:28.171Z,12.60
2023-05-08T21:09:57.774Z,13.65
2023-05-08T21:12:28.865Z,12.68
2023-05-08T21:14:58.508Z,13.60
2023-05-08T21:17:28.109Z,12.80
2023-05-08T21:19:58.776Z,13.05
2023-05-08T21:22:28.387Z,14.45
2023-05-08T21:24:58.056Z,12.38
2023-05-08T21:27:29.128Z,13.35
2023-05-08T21:29:58.639Z,12.85
2023-05-08T21:32:28.246Z,15.07
2023-05-08T21:34:57.943Z,14.25
2023-05-08T21:37:27.494Z,13.05
2023-05-08T21:39:57.004Z,12.95
2023-05-08T21:42:26.541Z,12.90
2023-05-08T21:45:00.063Z,13.23
2023-05-08T21:47:33.244Z,12.85
2023-05-08T21:50:02.863Z,13.30
2023-05-08T21:52:32.564Z,12.82
2023-05-08T21:55:02.203Z,13.18
2023-05-08T21:57:31.771Z,12.73
2023-05-08T22:00:01.441Z,13.57
2023-05-08T22:02:31.126Z,13.60
2023-05-08T22:05:00.842Z,13.55
2023-05-08T22:07:30.409Z,13.40
2023-05-08T22:10:00.102Z,14.27
2023-05-08T22:12:29.664Z,12.63
2023-05-08T22:14:59.466Z,13.63
2023-05-08T22:17:29.429Z,13.63
2023-05-08T22:19:59.402Z,13.65
2023-05-08T22:22:29.037Z,14.15
2023-05-08T22:24:59.035Z,14.23
2023-05-08T22:27:28.645Z,13.80
2023-05-08T22:29:58.277Z,13.63
2023-05-08T22:32:27.927Z,14.07
2023-05-08T22:34:57.590Z,14.27
2023-05-08T22:37:27.907Z,14.88
2023-05-08T22:39:58.469Z,14.13
2023-05-08T22:42:32.760Z,14.10
2023-05-08T22:45:03.290Z,14.13
2023-05-08T22:47:34.511Z,13.90
2023-05-08T22:50:05.622Z,13.20
2023-05-08T22:52:35.290Z,13.55
2023-05-08T22:55:05.656Z,12.63
2023-05-08T22:57:37.338Z,13.25
2023-05-08T23:00:08.839Z,13.82
2023-05-08T23:02:38.734Z,13.88
2023-05-08T23:05:08.904Z,12.90
2023-05-08T23:07:38.456Z,13.75
2023-05-08T23:10:08.694Z,14.57
2023-05-08T23:12:38.689Z,17.63
2023-05-08T23:15:09.218Z,19.63
2023-05-08T23:17:38.873Z,19.30
2023-05-08T23:20:09.128Z,22.48
2023-05-08T23:22:38.746Z,22.33
2023-05-08T23:25:11.237Z,22.15
2023-05-08T23:27:41.137Z,17.77
2023-05-08T23:30:14.480Z,16.70
2023-05-08T23:32:44.454Z,16.90
2023-05-08T23:35:14.433Z,17.83
2023-05-08T23:37:44.260Z,15.93
2023-05-08T23:40:14.283Z,16.58
2023-05-08T23:42:43.824Z,16.08
2023-05-08T23:45:14.179Z,16.95
2023-05-08T23:47:43.902Z,15.68
2023-05-08T23:50:14.005Z,16.73
2023-05-08T23:52:44.365Z,16.00
2023-05-08T23:55:14.285Z,16.13
2023-05-08T23:57:44.136Z,17.27
